Leawood, Kansas
Current Conditions -  °F | °C
As of 10:53 AM on Thursday 23 Oct 2014 (Local Time) from KOJC Reporting Station
Overcast Overcast  
Wind Chill: 62°   Ceiling: 700
Heat Index: 62°   Visibility: 10mi
Dew Point: 60°   Wind: 9mph
Humidity: 93%   Direction: 210°SSW
Pressure: 30.1"   Gusts: 18mph
Location:  38.92°N, 94.64°W
Report Text: KOJC 231553Z 21008G16KT 10SM BKN007 OVC034 17/16 A3010 RMK AO2 CIG 006V010 SLP188 T01670156
Loading
Personal Weather Stations






























Interactive Weather Map
Tropical Storm Tracking
New forecast layout! Learn more

10-Day Weather Forecast

Advertisements
Track Severe Weather on mobile